الصفحة الرئيسية
METAR-TAF:

METAR-TAF

مطار :

مابوتو, موزمبيق

دائرة عرض: 25-55S, خط طول: 032-34E, ارتفاع: 39 متر

مراقبة الطقس الحالي

تاريخ ووقت الإصدار 57 دقيقة قبل الساعة 01:00UTC
ريح 8 عقدة من الغرب/الجنوب الغربي
درجة الحرارة 18°درجة مئوية
الرطوبة 88%
ضغط 1020 hPa
الرؤية 10 كم أو أكثر
الغيوم لا تقل 1500 م ولا وجود لمزنة ركامية السحاب الأسود

METAR: FQMA 050100Z 25008KT CAVOK 18/16 Q1020 NOSIG

زمن: 03:57 (01:57 UTC)

توقعات

تاريخ ووقت الإصدار 3ساعات و 57 دقيقة قبل الساعة 22:00UTC
التوقعات صالحة من05 الساعة 00 UTC إلى 06 الساعة 06 UTC
ريح 5 عقدة من الجنوب/الجنوب الغربي
الرؤية 10 كم أو أكثر
الغيوم لا تقل 1500 م ولا وجود لمزنة ركامية السحاب الأسود
أصبح
من 05 الساعة 12 UTC إلى 05 الساعة 14 UTC
ريح 10 عقدة من الجنوب الشرقي
أصبح
من 06 الساعة 00 UTC إلى 06 الساعة 02 UTC
ريح 2 عقدةمن اتجاهات متغيرة

TAF: FQMA 042200Z 0500/0606 20005KT CAVOK TX23/0513Z TN15/0503Z BECMG 0512/0514 14010KT BECMG 0600/0602 VRB02KT

أرصاد الطقس والتوقعات من أكثر من 4000 مطار (تقارير الطقس للمطار METAR والتنبؤ بالطقس بالمطارTAF).

المحطات المتاحة هي النقط الصفراء والحمراء على الخريطة.

حرك المؤشر فوق النقطة لمعرفة اسم المحطة.

ثم انقر لمعرفة أرصاد وتوقعات الطقس.

لتغيير الخارطة: اضغط على الأزرار الخضراء مع رمز الصليب الأسود للتكبير. على الزر الأخضر مع شرطة للتصغير، أو على الأسهم الخضراء للخرائط المجاورة.


METAR-TAF: